CLX6575 DGAA-ELLX
Flight info
| Callsign | CLX6575 |
|---|---|
| Flight time | 5h 59m |
| Altitude | 41000 |
| Route | ACC UB726 PAMPA DCT TATAT DCT IPUTA DCT ABALA/N0485F430 DCT EREBO UA604 TMS UZ111 ELO UR978 CSO UM2 CIRTA DCT BUKID DCT GARPU DCT PIGOS DCT BARSO DCT IRMAR DCT KINES DCT VANAS DCT MOBLO/N0427F300 DCT UBIMA DCT GILIR DCT PENDU DCT IXILU DCT EPL G21 GIVOR GIVOR2B |
| Aircraft | B744/H-SDE2E3FGHIJ4J5M1RWXYZ/LB2D1 |
Departure
| Time | 2026-05-08 16:06 |
|---|---|
| Airport | Kotoka International Airport (DGAA) |
Arrival
| Time | 2026-05-08 22:05 |
|---|---|
| Airport | Luxembourg-Findel International Airport (ELLX) |
| Time | Latitude | Longitude | Altitude | Speed | Heading |
|---|---|---|---|---|---|
| 2026-05-08 14:04 | 5.59816 | -0.17332 | 211 ft | 0 kts | 292° |
| 2026-05-08 15:43 | 5.59813 | -0.17323 | 211 ft | 2 kts | 292° |
| 2026-05-08 15:43 | 5.59808 | -0.17312 | 211 ft | 2 kts | 292° |
| 2026-05-08 15:43 | 5.59803 | -0.17300 | 211 ft | 2 kts | 292° |
| 2026-05-08 15:44 | 5.59798 | -0.17287 | 211 ft | 2 kts | 292° |
| 2026-05-08 15:44 | 5.59794 | -0.17279 | 211 ft | 1 kts | 296° |
| 2026-05-08 15:44 | 5.59789 | -0.17269 | 211 ft | 2 kts | 308° |
| 2026-05-08 15:44 | 5.59781 | -0.17261 | 211 ft | 2 kts | 322° |
| 2026-05-08 15:45 | 5.59772 | -0.17255 | 211 ft | 2 kts | 339° |
| 2026-05-08 15:45 | 5.59762 | -0.17252 | 211 ft | 1 kts | 358° |
| 2026-05-08 15:45 | 5.59751 | -0.17253 | 211 ft | 2 kts | 13° |
| 2026-05-08 15:45 | 5.59737 | -0.17257 | 211 ft | 2 kts | 18° |
| 2026-05-08 15:46 | 5.59722 | -0.17262 | 211 ft | 2 kts | 21° |
| 2026-05-08 15:46 | 5.59707 | -0.17268 | 211 ft | 2 kts | 21° |
| 2026-05-08 15:46 | 5.59692 | -0.17274 | 211 ft | 2 kts | 23° |
| 2026-05-08 15:46 | 5.59677 | -0.17281 | 211 ft | 2 kts | 22° |
| 2026-05-08 15:47 | 5.59662 | -0.17287 | 211 ft | 2 kts | 22° |
| 2026-05-08 15:47 | 5.59647 | -0.17293 | 211 ft | 2 kts | 22° |
| 2026-05-08 15:47 | 5.59640 | -0.17296 | 211 ft | 0 kts | 22° |
| 2026-05-08 15:54 | 5.59670 | -0.17284 | 211 ft | 6 kts | 22° |
| 2026-05-08 15:54 | 5.59711 | -0.17267 | 211 ft | 9 kts | 22° |
| 2026-05-08 15:55 | 5.59795 | -0.17232 | 211 ft | 14 kts | 22° |
| 2026-05-08 15:55 | 5.59963 | -0.17162 | 211 ft | 12 kts | 22° |
| 2026-05-08 15:55 | 5.60039 | -0.17131 | 211 ft | 11 kts | 22° |
| 2026-05-08 15:56 | 5.60111 | -0.17102 | 211 ft | 11 kts | 22° |
| 2026-05-08 15:56 | 5.60177 | -0.17074 | 211 ft | 10 kts | 22° |
| 2026-05-08 15:56 | 5.60240 | -0.17048 | 211 ft | 9 kts | 22° |
| 2026-05-08 15:56 | 5.60304 | -0.17022 | 211 ft | 14 kts | 22° |
| 2026-05-08 15:57 | 5.60408 | -0.16978 | 211 ft | 16 kts | 22° |
| 2026-05-08 15:57 | 5.60508 | -0.16937 | 211 ft | 15 kts | 22° |
| 2026-05-08 15:57 | 5.60603 | -0.16898 | 211 ft | 14 kts | 22° |
| 2026-05-08 15:57 | 5.60691 | -0.16862 | 211 ft | 13 kts | 22° |
| 2026-05-08 15:58 | 5.60774 | -0.16828 | 211 ft | 12 kts | 22° |
| 2026-05-08 15:58 | 5.60851 | -0.16796 | 211 ft | 12 kts | 22° |
| 2026-05-08 15:58 | 5.60924 | -0.16766 | 211 ft | 11 kts | 22° |
| 2026-05-08 15:58 | 5.60991 | -0.16738 | 211 ft | 10 kts | 22° |
| 2026-05-08 15:59 | 5.61055 | -0.16711 | 211 ft | 10 kts | 22° |
| 2026-05-08 15:59 | 5.61115 | -0.16686 | 211 ft | 10 kts | 22° |
| 2026-05-08 15:59 | 5.61182 | -0.16659 | 211 ft | 11 kts | 22° |
| 2026-05-08 15:59 | 5.61255 | -0.16629 | 211 ft | 11 kts | 22° |
| 2026-05-08 16:00 | 5.61324 | -0.16600 | 211 ft | 10 kts | 22° |
| 2026-05-08 16:00 | 5.61388 | -0.16574 | 211 ft | 10 kts | 22° |
| 2026-05-08 16:00 | 5.61449 | -0.16549 | 211 ft | 9 kts | 22° |
| 2026-05-08 16:00 | 5.61506 | -0.16525 | 211 ft | 9 kts | 22° |
| 2026-05-08 16:01 | 5.61560 | -0.16503 | 211 ft | 8 kts | 22° |
| 2026-05-08 16:01 | 5.61607 | -0.16473 | 211 ft | 8 kts | 49° |
| 2026-05-08 16:01 | 5.61620 | -0.16425 | 211 ft | 7 kts | 98° |
| 2026-05-08 16:01 | 5.61606 | -0.16378 | 211 ft | 7 kts | 109° |
| 2026-05-08 16:02 | 5.61597 | -0.16332 | 211 ft | 9 kts | 87° |
| 2026-05-08 16:02 | 5.61625 | -0.16276 | 211 ft | 9 kts | 40° |
| 2026-05-08 16:02 | 5.61679 | -0.16248 | 211 ft | 8 kts | 22° |
| 2026-05-08 16:02 | 5.61732 | -0.16226 | 211 ft | 8 kts | 22° |
| 2026-05-08 16:03 | 5.61783 | -0.16209 | 211 ft | 8 kts | 9° |
| 2026-05-08 16:03 | 5.61817 | -0.16210 | 211 ft | 7 kts | 347° |
| 2026-05-08 16:03 | 5.61860 | -0.16220 | 211 ft | 6 kts | 357° |
| 2026-05-08 16:03 | 5.61892 | -0.16214 | 211 ft | 4 kts | 32° |
| 2026-05-08 16:04 | 5.61903 | -0.16191 | 211 ft | 3 kts | 85° |
| 2026-05-08 16:04 | 5.61895 | -0.16170 | 211 ft | 3 kts | 136° |
| 2026-05-08 16:04 | 5.61874 | -0.16168 | 211 ft | 3 kts | 191° |
| 2026-05-08 16:04 | 5.61856 | -0.16174 | 211 ft | 3 kts | 202° |
| 2026-05-08 16:05 | 5.61768 | -0.16210 | 211 ft | 36 kts | 201° |
| 2026-05-08 16:05 | 5.61289 | -0.16408 | 211 ft | 112 kts | 201° |
| 2026-05-08 16:05 | 5.60360 | -0.16791 | 219 ft | 173 kts | 203° |
| 2026-05-08 16:05 | 5.59198 | -0.17298 | 717 ft | 185 kts | 200° |
| 2026-05-08 16:06 | 5.58001 | -0.17784 | 1390 ft | 190 kts | 197° |
| 2026-05-08 16:06 | 5.56697 | -0.18195 | 1903 ft | 203 kts | 182° |
| 2026-05-08 16:06 | 5.55327 | -0.17888 | 2563 ft | 210 kts | 148° |
| 2026-05-08 16:06 | 5.54316 | -0.16785 | 3184 ft | 225 kts | 120° |
| 2026-05-08 16:07 | 5.53933 | -0.15254 | 3928 ft | 235 kts | 94° |
| 2026-05-08 16:07 | 5.54325 | -0.13652 | 4695 ft | 242 kts | 63° |
| 2026-05-08 16:07 | 5.55220 | -0.12235 | 5566 ft | 242 kts | 59° |
| 2026-05-08 16:07 | 5.56161 | -0.10744 | 5983 ft | 265 kts | 58° |
| 2026-05-08 16:08 | 5.57214 | -0.09209 | 6724 ft | 275 kts | 47° |
| 2026-05-08 16:08 | 5.58779 | -0.08067 | 7503 ft | 282 kts | 29° |
| 2026-05-08 16:08 | 5.60628 | -0.07296 | 8506 ft | 286 kts | 20° |
| 2026-05-08 16:08 | 5.62510 | -0.06709 | 9530 ft | 288 kts | 18° |
| 2026-05-08 16:09 | 5.64420 | -0.06102 | 10743 ft | 281 kts | 19° |
| 2026-05-08 16:09 | 5.66311 | -0.05706 | 11951 ft | 281 kts | 9° |
| 2026-05-08 16:09 | 5.68346 | -0.05831 | 12536 ft | 307 kts | 357° |
| 2026-05-08 16:09 | 5.70530 | -0.06195 | 12939 ft | 330 kts | 356° |
| 2026-05-08 16:10 | 5.72872 | -0.06604 | 13282 ft | 356 kts | 356° |
| 2026-05-08 16:10 | 5.75402 | -0.07031 | 13575 ft | 380 kts | 355° |
| 2026-05-08 16:10 | 5.78037 | -0.07469 | 14384 ft | 387 kts | 355° |
| 2026-05-08 16:10 | 5.80712 | -0.07906 | 15220 ft | 394 kts | 355° |
| 2026-05-08 16:11 | 5.83449 | -0.08250 | 16036 ft | 399 kts | 359° |
| 2026-05-08 16:11 | 5.86239 | -0.08436 | 16817 ft | 405 kts | 0° |
| 2026-05-08 16:11 | 5.89110 | -0.08537 | 17619 ft | 411 kts | 2° |
| 2026-05-08 16:11 | 5.91979 | -0.08547 | 18416 ft | 416 kts | 3° |
| 2026-05-08 16:12 | 5.94883 | -0.08518 | 19209 ft | 420 kts | 3° |
| 2026-05-08 16:12 | 5.97823 | -0.08467 | 19972 ft | 425 kts | 4° |
| 2026-05-08 16:12 | 6.00795 | -0.08399 | 20677 ft | 431 kts | 4° |
| 2026-05-08 16:12 | 6.03820 | -0.08291 | 21189 ft | 441 kts | 5° |
| 2026-05-08 16:13 | 6.06888 | -0.08075 | 21947 ft | 443 kts | 6° |
| 2026-05-08 16:13 | 6.09968 | -0.07823 | 22672 ft | 447 kts | 6° |
| 2026-05-08 16:13 | 6.13085 | -0.07546 | 23227 ft | 454 kts | 7° |
| 2026-05-08 16:13 | 6.16251 | -0.07239 | 23817 ft | 460 kts | 7° |
| 2026-05-08 16:14 | 6.19448 | -0.06909 | 24412 ft | 466 kts | 7° |
| 2026-05-08 16:14 | 6.22679 | -0.06569 | 25038 ft | 470 kts | 7° |
| 2026-05-08 16:14 | 6.25940 | -0.06223 | 25722 ft | 473 kts | 7° |
| 2026-05-08 16:14 | 6.29239 | -0.05751 | 26372 ft | 476 kts | 12° |
| 2026-05-08 16:15 | 6.32451 | -0.04901 | 26925 ft | 479 kts | 19° |
| 2026-05-08 16:15 | 6.35585 | -0.03802 | 27712 ft | 477 kts | 21° |
| 2026-05-08 16:15 | 6.38714 | -0.02697 | 28467 ft | 478 kts | 20° |
| 2026-05-08 16:15 | 6.41874 | -0.01603 | 28879 ft | 485 kts | 20° |
| 2026-05-08 16:16 | 6.45082 | -0.00480 | 29245 ft | 493 kts | 21° |
| 2026-05-08 16:16 | 6.48314 | 0.00691 | 29712 ft | 497 kts | 21° |
| 2026-05-08 16:16 | 6.51579 | 0.01862 | 30128 ft | 502 kts | 21° |
| 2026-05-08 16:16 | 6.54857 | 0.03064 | 30689 ft | 503 kts | 21° |
| 2026-05-08 16:17 | 6.58141 | 0.04276 | 31338 ft | 502 kts | 21° |
| 2026-05-08 16:17 | 6.61408 | 0.05471 | 32083 ft | 499 kts | 21° |
| 2026-05-08 16:17 | 6.64653 | 0.06651 | 32825 ft | 496 kts | 21° |
| 2026-05-08 16:17 | 6.67940 | 0.07842 | 33496 ft | 494 kts | 21° |
| 2026-05-08 16:18 | 6.71158 | 0.09006 | 34148 ft | 493 kts | 20° |
| 2026-05-08 16:18 | 6.74372 | 0.10167 | 34832 ft | 490 kts | 20° |
| 2026-05-08 16:18 | 6.77569 | 0.11322 | 35445 ft | 488 kts | 20° |
| 2026-05-08 16:18 | 6.80751 | 0.12471 | 36023 ft | 486 kts | 20° |
| 2026-05-08 16:19 | 6.83919 | 0.13614 | 36580 ft | 484 kts | 20° |
| 2026-05-08 16:19 | 6.87088 | 0.14758 | 37064 ft | 483 kts | 20° |
| 2026-05-08 16:19 | 6.90240 | 0.15896 | 37555 ft | 482 kts | 20° |
| 2026-05-08 16:19 | 6.93392 | 0.17034 | 38008 ft | 482 kts | 20° |
| 2026-05-08 16:20 | 6.96534 | 0.18169 | 38429 ft | 481 kts | 20° |
| 2026-05-08 16:20 | 6.99678 | 0.19304 | 38845 ft | 480 kts | 20° |
| 2026-05-08 16:20 | 7.02821 | 0.20439 | 39258 ft | 479 kts | 20° |
| 2026-05-08 16:20 | 7.05952 | 0.21570 | 39616 ft | 479 kts | 20° |
| 2026-05-08 16:21 | 7.09127 | 0.22718 | 39981 ft | 479 kts | 20° |
| 2026-05-08 16:21 | 7.12250 | 0.23846 | 40234 ft | 478 kts | 20° |
| 2026-05-08 16:21 | 7.15380 | 0.24977 | 40386 ft | 479 kts | 20° |
| 2026-05-08 16:21 | 7.18512 | 0.26109 | 40611 ft | 478 kts | 20° |
| 2026-05-08 16:22 | 7.21636 | 0.27238 | 40842 ft | 477 kts | 20° |
| 2026-05-08 16:22 | 7.24752 | 0.28365 | 40888 ft | 478 kts | 20° |
| 2026-05-08 16:22 | 7.31009 | 0.30628 | 40884 ft | 479 kts | 20° |
| 2026-05-08 16:23 | 7.37259 | 0.32889 | 40886 ft | 478 kts | 20° |
| 2026-05-08 16:23 | 7.43520 | 0.35154 | 40888 ft | 478 kts | 20° |
| 2026-05-08 16:24 | 7.49777 | 0.37419 | 40890 ft | 479 kts | 20° |
| 2026-05-08 16:24 | 7.56075 | 0.39700 | 40892 ft | 479 kts | 20° |
| 2026-05-08 16:25 | 7.62343 | 0.41970 | 40894 ft | 479 kts | 20° |
| 2026-05-08 16:25 | 7.68611 | 0.44241 | 40896 ft | 479 kts | 20° |
| 2026-05-08 16:26 | 7.74880 | 0.46511 | 40899 ft | 479 kts | 20° |
| 2026-05-08 16:26 | 7.81145 | 0.48782 | 40901 ft | 479 kts | 20° |
| 2026-05-08 16:27 | 7.87414 | 0.51056 | 40904 ft | 479 kts | 20° |
| 2026-05-08 16:27 | 7.93721 | 0.53346 | 40906 ft | 479 kts | 20° |
| 2026-05-08 16:28 | 7.99983 | 0.55629 | 40907 ft | 479 kts | 22° |
| 2026-05-08 16:28 | 8.05970 | 0.58561 | 40912 ft | 480 kts | 29° |
| 2026-05-08 16:29 | 8.11757 | 0.61901 | 40914 ft | 480 kts | 30° |
| 2026-05-08 16:29 | 8.17540 | 0.65245 | 40916 ft | 480 kts | 30° |
| 2026-05-08 16:30 | 8.23327 | 0.68560 | 40918 ft | 479 kts | 30° |
| 2026-05-08 16:30 | 8.29128 | 0.71869 | 40921 ft | 479 kts | 30° |
| 2026-05-08 16:31 | 8.34967 | 0.75192 | 40924 ft | 479 kts | 29° |
| 2026-05-08 16:31 | 8.40768 | 0.78492 | 40926 ft | 479 kts | 29° |
| 2026-05-08 16:32 | 8.46570 | 0.81794 | 40928 ft | 479 kts | 30° |
| 2026-05-08 16:32 | 8.52372 | 0.85098 | 40931 ft | 479 kts | 29° |
| 2026-05-08 16:33 | 8.58172 | 0.88403 | 40933 ft | 480 kts | 29° |
| 2026-05-08 16:33 | 8.63973 | 0.91709 | 40936 ft | 479 kts | 29° |
| 2026-05-08 16:34 | 8.69798 | 0.95030 | 40938 ft | 479 kts | 29° |
| 2026-05-08 16:34 | 8.75593 | 0.98335 | 40941 ft | 479 kts | 29° |
| 2026-05-08 16:35 | 8.81391 | 1.01643 | 40943 ft | 480 kts | 29° |
| 2026-05-08 16:35 | 8.87198 | 1.04958 | 40945 ft | 479 kts | 29° |
| 2026-05-08 16:36 | 8.92991 | 1.08265 | 40948 ft | 479 kts | 29° |
| 2026-05-08 16:36 | 8.98834 | 1.11602 | 40948 ft | 480 kts | 29° |
| 2026-05-08 16:37 | 9.04631 | 1.14915 | 40950 ft | 480 kts | 29° |
| 2026-05-08 16:37 | 9.10433 | 1.18231 | 40952 ft | 480 kts | 29° |
| 2026-05-08 16:38 | 9.16231 | 1.21547 | 40954 ft | 480 kts | 29° |
| 2026-05-08 16:38 | 9.22038 | 1.24868 | 40955 ft | 480 kts | 29° |
| 2026-05-08 16:39 | 9.27852 | 1.28196 | 40955 ft | 480 kts | 29° |
| 2026-05-08 16:39 | 9.33658 | 1.31519 | 40956 ft | 480 kts | 29° |
| 2026-05-08 16:40 | 9.39465 | 1.34845 | 40957 ft | 480 kts | 29° |
| 2026-05-08 16:40 | 9.45268 | 1.38169 | 40958 ft | 480 kts | 29° |
| 2026-05-08 16:41 | 9.51117 | 1.41522 | 40959 ft | 481 kts | 29° |
| 2026-05-08 16:42 | 9.59837 | 1.46522 | 40960 ft | 481 kts | 29° |
| 2026-05-08 16:42 | 9.65647 | 1.49855 | 40960 ft | 481 kts | 29° |
| 2026-05-08 16:43 | 9.71454 | 1.53188 | 40960 ft | 481 kts | 29° |
| 2026-05-08 16:43 | 9.77269 | 1.56527 | 40959 ft | 481 kts | 28° |
| 2026-05-08 16:44 | 9.83126 | 1.59891 | 40957 ft | 481 kts | 28° |
| 2026-05-08 16:44 | 9.88938 | 1.63231 | 40956 ft | 481 kts | 28° |
| 2026-05-08 16:45 | 9.94757 | 1.66576 | 40954 ft | 481 kts | 28° |
| 2026-05-08 16:45 | 10.00572 | 1.69921 | 40952 ft | 481 kts | 28° |
| 2026-05-08 16:46 | 10.06389 | 1.73268 | 40950 ft | 482 kts | 28° |
| 2026-05-08 16:46 | 10.12244 | 1.76637 | 40947 ft | 482 kts | 28° |
| 2026-05-08 16:47 | 10.18064 | 1.79989 | 40945 ft | 482 kts | 28° |
| 2026-05-08 16:47 | 10.23882 | 1.83341 | 40942 ft | 482 kts | 28° |
| 2026-05-08 16:48 | 10.29702 | 1.86695 | 40939 ft | 482 kts | 28° |
| 2026-05-08 16:48 | 10.35518 | 1.90048 | 40935 ft | 482 kts | 28° |
| 2026-05-08 16:49 | 10.41339 | 1.93406 | 40932 ft | 482 kts | 28° |
| 2026-05-08 16:49 | 10.47195 | 1.96786 | 40928 ft | 482 kts | 28° |
| 2026-05-08 16:50 | 10.53009 | 2.00142 | 40925 ft | 482 kts | 28° |
| 2026-05-08 16:50 | 10.58824 | 2.03501 | 40921 ft | 482 kts | 28° |
| 2026-05-08 16:51 | 10.64642 | 2.06863 | 40917 ft | 482 kts | 28° |
| 2026-05-08 16:51 | 10.70462 | 2.10228 | 40913 ft | 482 kts | 28° |
| 2026-05-08 16:52 | 10.76278 | 2.13587 | 40909 ft | 482 kts | 28° |
| 2026-05-08 16:52 | 10.82097 | 2.16955 | 40905 ft | 482 kts | 28° |
| 2026-05-08 16:53 | 10.90872 | 2.22038 | 40895 ft | 482 kts | 28° |
| 2026-05-08 16:53 | 10.96695 | 2.25413 | 40890 ft | 482 kts | 28° |
| 2026-05-08 16:54 | 11.02608 | 2.28608 | 40886 ft | 482 kts | 24° |
| 2026-05-08 16:54 | 11.08723 | 2.31384 | 40881 ft | 482 kts | 22° |
| 2026-05-08 16:55 | 11.14850 | 2.34129 | 40877 ft | 482 kts | 23° |
| 2026-05-08 16:55 | 11.19967 | 2.36448 | 40873 ft | 482 kts | 23° |
| 2026-05-08 16:56 | 11.26081 | 2.39232 | 40869 ft | 482 kts | 23° |
| 2026-05-08 16:56 | 11.32189 | 2.42018 | 40864 ft | 482 kts | 23° |
| 2026-05-08 16:57 | 11.38304 | 2.44805 | 40860 ft | 482 kts | 23° |
| 2026-05-08 16:57 | 11.44413 | 2.47594 | 40856 ft | 482 kts | 23° |
| 2026-05-08 16:58 | 11.50572 | 2.50409 | 40852 ft | 482 kts | 23° |
| 2026-05-08 16:58 | 11.56687 | 2.53206 | 40848 ft | 482 kts | 23° |
| 2026-05-08 16:59 | 11.62798 | 2.56003 | 40844 ft | 482 kts | 23° |
| 2026-05-08 16:59 | 11.68915 | 2.58804 | 40841 ft | 482 kts | 23° |
| 2026-05-08 17:00 | 11.75026 | 2.61604 | 40837 ft | 482 kts | 23° |
| 2026-05-08 17:00 | 11.81138 | 2.64405 | 40834 ft | 482 kts | 23° |
| 2026-05-08 17:01 | 11.87294 | 2.67228 | 40831 ft | 482 kts | 23° |
| 2026-05-08 17:01 | 11.93406 | 2.70032 | 40828 ft | 482 kts | 23° |
| 2026-05-08 17:02 | 11.99514 | 2.72836 | 40825 ft | 482 kts | 23° |
| 2026-05-08 17:02 | 12.05617 | 2.75639 | 40823 ft | 482 kts | 23° |
| 2026-05-08 17:03 | 12.11727 | 2.78446 | 40820 ft | 482 kts | 23° |
| 2026-05-08 17:03 | 12.17832 | 2.81252 | 40817 ft | 482 kts | 23° |
| 2026-05-08 17:04 | 12.23936 | 2.84060 | 40815 ft | 482 kts | 23° |
| 2026-05-08 17:04 | 12.30079 | 2.86887 | 40813 ft | 482 kts | 23° |
| 2026-05-08 17:05 | 12.36186 | 2.89699 | 40811 ft | 482 kts | 23° |
| 2026-05-08 17:05 | 12.42280 | 2.92506 | 40809 ft | 482 kts | 23° |
| 2026-05-08 17:06 | 12.48385 | 2.95319 | 40808 ft | 481 kts | 23° |
| 2026-05-08 17:06 | 12.54478 | 2.98129 | 40806 ft | 481 kts | 23° |
| 2026-05-08 17:07 | 12.60573 | 3.00941 | 40805 ft | 481 kts | 23° |
| 2026-05-08 17:07 | 12.66710 | 3.03774 | 40804 ft | 481 kts | 23° |
| 2026-05-08 17:08 | 12.72810 | 3.06591 | 40803 ft | 481 kts | 23° |
| 2026-05-08 17:08 | 12.78902 | 3.09407 | 40802 ft | 482 kts | 23° |
| 2026-05-08 17:09 | 12.84999 | 3.12226 | 40801 ft | 482 kts | 23° |
| 2026-05-08 17:09 | 12.91099 | 3.15048 | 40801 ft | 481 kts | 23° |
| 2026-05-08 17:10 | 12.97191 | 3.17867 | 40800 ft | 481 kts | 23° |
| 2026-05-08 17:10 | 13.03286 | 3.20690 | 40800 ft | 482 kts | 23° |
| 2026-05-08 17:11 | 13.09424 | 3.23534 | 40799 ft | 482 kts | 23° |
| 2026-05-08 17:11 | 13.15525 | 3.26363 | 40799 ft | 482 kts | 22° |
| 2026-05-08 17:12 | 13.21623 | 3.29192 | 40799 ft | 482 kts | 22° |
| 2026-05-08 17:12 | 13.27728 | 3.32022 | 40799 ft | 482 kts | 22° |
| 2026-05-08 17:13 | 13.33824 | 3.34851 | 40799 ft | 482 kts | 23° |
| 2026-05-08 17:13 | 13.39919 | 3.37685 | 40799 ft | 482 kts | 22° |
| 2026-05-08 17:14 | 13.46068 | 3.40546 | 40800 ft | 482 kts | 22° |
| 2026-05-08 17:14 | 13.52166 | 3.43383 | 40791 ft | 482 kts | 22° |
| 2026-05-08 17:15 | 13.58283 | 3.46201 | 40791 ft | 482 kts | 21° |
| 2026-05-08 17:15 | 13.64419 | 3.48943 | 40791 ft | 482 kts | 22° |
| 2026-05-08 17:16 | 13.70558 | 3.51698 | 40792 ft | 482 kts | 22° |
| 2026-05-08 17:16 | 13.76692 | 3.54456 | 40792 ft | 482 kts | 21° |
| 2026-05-08 17:17 | 13.82864 | 3.57235 | 40793 ft | 482 kts | 21° |
| 2026-05-08 17:17 | 13.89000 | 3.59996 | 40793 ft | 482 kts | 21° |
| 2026-05-08 17:18 | 13.95140 | 3.62757 | 40793 ft | 482 kts | 21° |
| 2026-05-08 17:18 | 14.01275 | 3.65521 | 40794 ft | 482 kts | 21° |
| 2026-05-08 17:19 | 14.07416 | 3.68290 | 40795 ft | 483 kts | 21° |
| 2026-05-08 17:19 | 14.13551 | 3.71058 | 40795 ft | 483 kts | 21° |
| 2026-05-08 17:20 | 14.19732 | 3.73849 | 40796 ft | 483 kts | 21° |
| 2026-05-08 17:20 | 14.25873 | 3.76624 | 40797 ft | 483 kts | 21° |
| 2026-05-08 17:21 | 14.32019 | 3.79403 | 40797 ft | 483 kts | 21° |
| 2026-05-08 17:21 | 14.38158 | 3.82180 | 40798 ft | 483 kts | 21° |
| 2026-05-08 17:22 | 14.44306 | 3.84963 | 40799 ft | 483 kts | 21° |
| 2026-05-08 17:22 | 14.50449 | 3.87745 | 40800 ft | 483 kts | 21° |
| 2026-05-08 17:23 | 14.56596 | 3.90531 | 40800 ft | 484 kts | 21° |
| 2026-05-08 17:23 | 14.62792 | 3.93341 | 40801 ft | 484 kts | 21° |
| 2026-05-08 17:24 | 14.68949 | 3.96135 | 40802 ft | 484 kts | 21° |
| 2026-05-08 17:24 | 14.75103 | 3.98929 | 40803 ft | 484 kts | 21° |
| 2026-05-08 17:25 | 14.81256 | 4.01724 | 40803 ft | 484 kts | 21° |
| 2026-05-08 17:25 | 14.87412 | 4.04523 | 40804 ft | 483 kts | 21° |
| 2026-05-08 17:26 | 14.93557 | 4.07318 | 40809 ft | 484 kts | 21° |
| 2026-05-08 17:26 | 14.99757 | 4.10140 | 40811 ft | 484 kts | 21° |
| 2026-05-08 17:27 | 15.05912 | 4.12944 | 40811 ft | 484 kts | 21° |
| 2026-05-08 17:27 | 15.12073 | 4.15752 | 40812 ft | 485 kts | 21° |
| 2026-05-08 17:28 | 15.18235 | 4.18562 | 40811 ft | 485 kts | 21° |
| 2026-05-08 17:28 | 15.24399 | 4.21375 | 40811 ft | 485 kts | 21° |
| 2026-05-08 17:29 | 15.30609 | 4.24211 | 40812 ft | 485 kts | 21° |
| 2026-05-08 17:29 | 15.36779 | 4.27030 | 40812 ft | 485 kts | 21° |
| 2026-05-08 17:30 | 15.42942 | 4.29848 | 40813 ft | 485 kts | 21° |
| 2026-05-08 17:30 | 15.49119 | 4.32674 | 40813 ft | 486 kts | 21° |
| 2026-05-08 17:31 | 15.55292 | 4.35501 | 40813 ft | 486 kts | 21° |
| 2026-05-08 17:31 | 15.61469 | 4.38331 | 40813 ft | 486 kts | 21° |
| 2026-05-08 17:32 | 15.67644 | 4.41162 | 40813 ft | 486 kts | 21° |
| 2026-05-08 17:32 | 15.73862 | 4.44014 | 40813 ft | 486 kts | 21° |
| 2026-05-08 17:33 | 15.80033 | 4.46841 | 40813 ft | 486 kts | 21° |
| 2026-05-08 17:33 | 15.86209 | 4.49679 | 40813 ft | 486 kts | 21° |
| 2026-05-08 17:34 | 15.92384 | 4.52520 | 40813 ft | 486 kts | 21° |
| 2026-05-08 17:34 | 15.98598 | 4.55381 | 40813 ft | 486 kts | 21° |
| 2026-05-08 17:35 | 16.04772 | 4.58224 | 40813 ft | 487 kts | 21° |
| 2026-05-08 17:35 | 16.10925 | 4.61172 | 40813 ft | 488 kts | 22° |
| 2026-05-08 17:36 | 16.17060 | 4.64158 | 40813 ft | 488 kts | 22° |
| 2026-05-08 17:36 | 16.23195 | 4.67140 | 40813 ft | 488 kts | 21° |
| 2026-05-08 17:37 | 16.29334 | 4.70123 | 40813 ft | 488 kts | 21° |
| 2026-05-08 17:37 | 16.35480 | 4.73110 | 40819 ft | 488 kts | 21° |
| 2026-05-08 17:38 | 16.41660 | 4.76103 | 40821 ft | 488 kts | 21° |
| 2026-05-08 17:38 | 16.47806 | 4.79085 | 40822 ft | 488 kts | 21° |
| 2026-05-08 17:39 | 16.53954 | 4.82073 | 40822 ft | 488 kts | 21° |
| 2026-05-08 17:39 | 16.60094 | 4.85060 | 40822 ft | 488 kts | 21° |
| 2026-05-08 17:40 | 16.66239 | 4.88052 | 40823 ft | 488 kts | 21° |
| 2026-05-08 17:40 | 16.72427 | 4.91067 | 40823 ft | 488 kts | 21° |
| 2026-05-08 17:41 | 16.75500 | 4.92566 | 40932 ft | 489 kts | 21° |
| 2026-05-08 17:41 | 16.78588 | 4.94072 | 41130 ft | 491 kts | 21° |
| 2026-05-08 17:41 | 16.81680 | 4.95580 | 41330 ft | 492 kts | 21° |
| 2026-05-08 17:41 | 16.84769 | 4.97089 | 41529 ft | 491 kts | 21° |
| 2026-05-08 17:42 | 16.87865 | 4.98600 | 41729 ft | 491 kts | 21° |
| 2026-05-08 17:42 | 16.90952 | 5.00108 | 41928 ft | 491 kts | 21° |
| 2026-05-08 17:42 | 16.94047 | 5.01620 | 42128 ft | 491 kts | 21° |
| 2026-05-08 17:42 | 16.97138 | 5.03131 | 42328 ft | 491 kts | 21° |
| 2026-05-08 17:43 | 17.00230 | 5.04643 | 42527 ft | 491 kts | 21° |
| 2026-05-08 17:43 | 17.03364 | 5.06176 | 42727 ft | 491 kts | 21° |
| 2026-05-08 17:43 | 17.09550 | 5.09203 | 42843 ft | 492 kts | 21° |
| 2026-05-08 17:44 | 17.15743 | 5.12237 | 42854 ft | 492 kts | 21° |
| 2026-05-08 17:44 | 17.21932 | 5.15270 | 42856 ft | 492 kts | 21° |
| 2026-05-08 17:45 | 17.28117 | 5.18304 | 42858 ft | 492 kts | 21° |
| 2026-05-08 17:45 | 17.34308 | 5.21343 | 42861 ft | 492 kts | 21° |
| 2026-05-08 17:46 | 17.40501 | 5.24386 | 42864 ft | 492 kts | 21° |
| 2026-05-08 17:46 | 17.45689 | 5.26936 | 42867 ft | 492 kts | 21° |
| 2026-05-08 17:47 | 17.51889 | 5.29986 | 42868 ft | 493 kts | 21° |
| 2026-05-08 17:47 | 17.58085 | 5.33036 | 42869 ft | 493 kts | 21° |
| 2026-05-08 17:48 | 17.64286 | 5.36092 | 42872 ft | 493 kts | 21° |
| 2026-05-08 17:48 | 17.70534 | 5.39172 | 42873 ft | 494 kts | 21° |
| 2026-05-08 17:49 | 17.76732 | 5.42230 | 42875 ft | 493 kts | 21° |
| 2026-05-08 17:49 | 17.82936 | 5.45294 | 42877 ft | 494 kts | 21° |
| 2026-05-08 17:50 | 17.89151 | 5.48366 | 42887 ft | 494 kts | 21° |
| 2026-05-08 17:50 | 17.95362 | 5.51438 | 42890 ft | 495 kts | 21° |
| 2026-05-08 17:51 | 18.01581 | 5.54516 | 42892 ft | 495 kts | 21° |
| 2026-05-08 17:51 | 18.07803 | 5.57598 | 42895 ft | 495 kts | 20° |
| 2026-05-08 17:52 | 18.14067 | 5.60704 | 42897 ft | 495 kts | 20° |
| 2026-05-08 17:53 | 18.23405 | 5.65337 | 42900 ft | 495 kts | 20° |
| 2026-05-08 17:53 | 18.29627 | 5.68428 | 42902 ft | 495 kts | 20° |
| 2026-05-08 17:54 | 18.35843 | 5.71518 | 42905 ft | 495 kts | 20° |
| 2026-05-08 17:54 | 18.42067 | 5.74615 | 42907 ft | 495 kts | 20° |
| 2026-05-08 17:55 | 18.48332 | 5.77735 | 42910 ft | 496 kts | 20° |
| 2026-05-08 17:55 | 18.54555 | 5.80836 | 42913 ft | 496 kts | 20° |
| 2026-05-08 17:56 | 18.60783 | 5.83942 | 42915 ft | 496 kts | 20° |
| 2026-05-08 17:56 | 18.67013 | 5.87052 | 42918 ft | 496 kts | 20° |
| 2026-05-08 17:57 | 18.73236 | 5.90160 | 42921 ft | 496 kts | 20° |
| 2026-05-08 17:57 | 18.79460 | 5.93272 | 42924 ft | 496 kts | 20° |
| 2026-05-08 17:58 | 18.85689 | 5.96389 | 42927 ft | 496 kts | 20° |
| 2026-05-08 17:58 | 18.91958 | 5.99529 | 42930 ft | 497 kts | 20° |
| 2026-05-08 17:59 | 18.98194 | 6.02654 | 42934 ft | 497 kts | 20° |
| 2026-05-08 17:59 | 19.04429 | 6.05782 | 42937 ft | 497 kts | 20° |
| 2026-05-08 18:00 | 19.09656 | 6.08406 | 42940 ft | 497 kts | 20° |
| 2026-05-08 18:00 | 19.20011 | 6.13610 | 42947 ft | 497 kts | 19° |
| 2026-05-08 18:01 | 19.26279 | 6.16764 | 42951 ft | 497 kts | 19° |
| 2026-05-08 18:01 | 19.32518 | 6.19905 | 42954 ft | 497 kts | 19° |
| 2026-05-08 18:02 | 19.37701 | 6.22517 | 42958 ft | 497 kts | 19° |
| 2026-05-08 18:02 | 19.44990 | 6.26193 | 42962 ft | 498 kts | 19° |
| 2026-05-08 18:03 | 19.51239 | 6.29348 | 42966 ft | 498 kts | 19° |
| 2026-05-08 18:03 | 19.57481 | 6.32502 | 42971 ft | 498 kts | 19° |
| 2026-05-08 18:04 | 19.63770 | 6.35682 | 42975 ft | 498 kts | 19° |
| 2026-05-08 18:04 | 19.70013 | 6.38842 | 42980 ft | 498 kts | 19° |
| 2026-05-08 18:05 | 19.76262 | 6.42008 | 42984 ft | 498 kts | 19° |
| 2026-05-08 18:05 | 19.82504 | 6.45173 | 42988 ft | 498 kts | 19° |
| 2026-05-08 18:06 | 19.88757 | 6.48337 | 42993 ft | 498 kts | 19° |
| 2026-05-08 18:06 | 19.94995 | 6.51508 | 42997 ft | 498 kts | 19° |
| 2026-05-08 18:07 | 20.01283 | 6.54709 | 43001 ft | 498 kts | 19° |
| 2026-05-08 18:07 | 20.07566 | 6.57715 | 43005 ft | 489 kts | 8° |
| 2026-05-08 18:08 | 20.10846 | 6.58254 | 43006 ft | 469 kts | 353° |
| 2026-05-08 18:08 | 20.14042 | 6.57930 | 43010 ft | 458 kts | 343° |
| 2026-05-08 18:08 | 20.20192 | 6.56316 | 43017 ft | 455 kts | 335° |
| 2026-05-08 18:09 | 20.26093 | 6.54018 | 43021 ft | 450 kts | 331° |
| 2026-05-08 18:09 | 20.31863 | 6.51538 | 43027 ft | 447 kts | 331° |
| 2026-05-08 18:10 | 20.37625 | 6.49079 | 43032 ft | 447 kts | 331° |
| 2026-05-08 18:10 | 20.43407 | 6.46624 | 43037 ft | 443 kts | 331° |
| 2026-05-08 18:11 | 20.49126 | 6.44213 | 43043 ft | 443 kts | 332° |
| 2026-05-08 18:11 | 20.54851 | 6.41796 | 43048 ft | 443 kts | 331° |
| 2026-05-08 18:12 | 20.60583 | 6.39372 | 43053 ft | 443 kts | 331° |
| 2026-05-08 18:12 | 20.66312 | 6.36947 | 43058 ft | 444 kts | 331° |
| 2026-05-08 18:13 | 20.72037 | 6.34521 | 43063 ft | 444 kts | 331° |
| 2026-05-08 18:13 | 20.77803 | 6.32075 | 43068 ft | 443 kts | 331° |
| 2026-05-08 18:14 | 20.83529 | 6.29645 | 43073 ft | 443 kts | 331° |
| 2026-05-08 18:14 | 20.89239 | 6.27219 | 43078 ft | 442 kts | 331° |
| 2026-05-08 18:15 | 20.94936 | 6.24797 | 43083 ft | 441 kts | 331° |
| 2026-05-08 18:15 | 21.00630 | 6.22374 | 43091 ft | 441 kts | 331° |
| 2026-05-08 18:16 | 21.06321 | 6.19950 | 43096 ft | 441 kts | 331° |
| 2026-05-08 18:16 | 21.12003 | 6.17529 | 43100 ft | 440 kts | 330° |
| 2026-05-08 18:17 | 21.17724 | 6.15089 | 43104 ft | 440 kts | 330° |
| 2026-05-08 18:17 | 21.23393 | 6.12668 | 43108 ft | 439 kts | 330° |
| 2026-05-08 18:18 | 21.29067 | 6.10244 | 43113 ft | 440 kts | 330° |
| 2026-05-08 18:18 | 21.34738 | 6.07818 | 43116 ft | 439 kts | 330° |
| 2026-05-08 18:19 | 21.40394 | 6.05398 | 43120 ft | 438 kts | 330° |
| 2026-05-08 18:19 | 21.46036 | 6.02981 | 43124 ft | 438 kts | 330° |
| 2026-05-08 18:20 | 21.51685 | 6.00559 | 43121 ft | 437 kts | 330° |
| 2026-05-08 18:20 | 21.57364 | 5.98123 | 43125 ft | 437 kts | 330° |
| 2026-05-08 18:21 | 21.63008 | 5.95699 | 43128 ft | 438 kts | 330° |
| 2026-05-08 18:21 | 21.68647 | 5.93275 | 43131 ft | 436 kts | 330° |
| 2026-05-08 18:22 | 21.74270 | 5.90856 | 43135 ft | 436 kts | 330° |
| 2026-05-08 18:22 | 21.79883 | 5.88439 | 43138 ft | 436 kts | 330° |
| 2026-05-08 18:23 | 21.85552 | 5.85997 | 43141 ft | 436 kts | 329° |
| 2026-05-08 18:23 | 21.91166 | 5.83576 | 43144 ft | 435 kts | 329° |
| 2026-05-08 18:24 | 21.96781 | 5.81152 | 43147 ft | 435 kts | 329° |
| 2026-05-08 18:24 | 22.02391 | 5.78729 | 43150 ft | 435 kts | 329° |
| 2026-05-08 18:25 | 22.08008 | 5.76300 | 43153 ft | 435 kts | 329° |
| 2026-05-08 18:25 | 22.13620 | 5.73872 | 43155 ft | 436 kts | 329° |
| 2026-05-08 18:26 | 22.19245 | 5.71435 | 43158 ft | 437 kts | 329° |
| 2026-05-08 18:26 | 22.24913 | 5.68978 | 43160 ft | 436 kts | 329° |
| 2026-05-08 18:27 | 22.29584 | 5.66952 | 43161 ft | 436 kts | 329° |
| 2026-05-08 18:27 | 22.36159 | 5.64097 | 43164 ft | 437 kts | 329° |
| 2026-05-08 18:28 | 22.41785 | 5.61651 | 43165 ft | 437 kts | 329° |
| 2026-05-08 18:28 | 22.47414 | 5.59203 | 43166 ft | 437 kts | 329° |
| 2026-05-08 18:29 | 22.53057 | 5.56751 | 43168 ft | 438 kts | 329° |
| 2026-05-08 18:29 | 22.58701 | 5.54295 | 43169 ft | 438 kts | 329° |
| 2026-05-08 18:30 | 22.64384 | 5.51813 | 43170 ft | 438 kts | 329° |
| 2026-05-08 18:30 | 22.70031 | 5.49345 | 43170 ft | 438 kts | 329° |
| 2026-05-08 18:31 | 22.75677 | 5.46875 | 43171 ft | 439 kts | 329° |
| 2026-05-08 18:31 | 22.81668 | 5.45232 | 43176 ft | 464 kts | 348° |
| 2026-05-08 18:32 | 22.88196 | 5.45406 | 43171 ft | 473 kts | 355° |
| 2026-05-08 18:32 | 22.94757 | 5.46149 | 43171 ft | 477 kts | 357° |
| 2026-05-08 18:33 | 23.01407 | 5.46961 | 43170 ft | 479 kts | 356° |
| 2026-05-08 18:33 | 23.08011 | 5.47734 | 43169 ft | 478 kts | 356° |
| 2026-05-08 18:34 | 23.14617 | 5.48496 | 43168 ft | 478 kts | 356° |
| 2026-05-08 18:34 | 23.21222 | 5.49250 | 43168 ft | 479 kts | 356° |
| 2026-05-08 18:35 | 23.27844 | 5.50005 | 43166 ft | 479 kts | 356° |
| 2026-05-08 18:35 | 23.34456 | 5.50760 | 43192 ft | 479 kts | 356° |
| 2026-05-08 18:36 | 23.41072 | 5.51517 | 43191 ft | 479 kts | 356° |
| 2026-05-08 18:36 | 23.47695 | 5.52274 | 43188 ft | 479 kts | 356° |
| 2026-05-08 18:37 | 23.54352 | 5.53037 | 43186 ft | 479 kts | 356° |
| 2026-05-08 18:37 | 23.59849 | 5.53667 | 43183 ft | 479 kts | 356° |
| 2026-05-08 18:38 | 23.67584 | 5.54555 | 43180 ft | 479 kts | 356° |
| 2026-05-08 18:38 | 23.74204 | 5.55316 | 43176 ft | 479 kts | 356° |
| 2026-05-08 18:39 | 23.80816 | 5.56076 | 43173 ft | 479 kts | 356° |
| 2026-05-08 18:39 | 23.87432 | 5.56838 | 43162 ft | 479 kts | 356° |
| 2026-05-08 18:40 | 23.94094 | 5.57606 | 43156 ft | 479 kts | 356° |
| 2026-05-08 18:40 | 23.99590 | 5.58240 | 43152 ft | 479 kts | 356° |
| 2026-05-08 18:41 | 24.06217 | 5.59005 | 43147 ft | 480 kts | 356° |
| 2026-05-08 18:41 | 24.12856 | 5.59773 | 43141 ft | 481 kts | 356° |
| 2026-05-08 18:42 | 24.19541 | 5.60546 | 43135 ft | 480 kts | 356° |
| 2026-05-08 18:42 | 24.26183 | 5.61316 | 43129 ft | 480 kts | 356° |
| 2026-05-08 18:43 | 24.32819 | 5.62085 | 43123 ft | 480 kts | 356° |
| 2026-05-08 18:43 | 24.39459 | 5.62856 | 43118 ft | 481 kts | 356° |
| 2026-05-08 18:44 | 24.46094 | 5.63627 | 43112 ft | 481 kts | 356° |
| 2026-05-08 18:44 | 24.52737 | 5.64400 | 43107 ft | 481 kts | 356° |
| 2026-05-08 18:45 | 24.59416 | 5.65178 | 43101 ft | 481 kts | 356° |
| 2026-05-08 18:45 | 24.66079 | 5.65955 | 43096 ft | 482 kts | 356° |
| 2026-05-08 18:46 | 24.72748 | 5.66733 | 43090 ft | 483 kts | 356° |
| 2026-05-08 18:46 | 24.79410 | 5.67511 | 43084 ft | 483 kts | 356° |
| 2026-05-08 18:47 | 24.86082 | 5.68292 | 43079 ft | 482 kts | 356° |
| 2026-05-08 18:47 | 24.92786 | 5.69077 | 43074 ft | 483 kts | 356° |
| 2026-05-08 18:48 | 24.99459 | 5.69859 | 43069 ft | 483 kts | 356° |
| 2026-05-08 18:48 | 25.06130 | 5.70642 | 43064 ft | 484 kts | 356° |
| 2026-05-08 18:49 | 25.12825 | 5.71428 | 43060 ft | 485 kts | 356° |
| 2026-05-08 18:49 | 25.19516 | 5.72215 | 43055 ft | 485 kts | 356° |
| 2026-05-08 18:50 | 25.26209 | 5.73003 | 43050 ft | 484 kts | 356° |
| 2026-05-08 18:50 | 25.32945 | 5.73797 | 43046 ft | 484 kts | 357° |
| 2026-05-08 18:51 | 25.39641 | 5.74587 | 43042 ft | 485 kts | 357° |
| 2026-05-08 18:51 | 25.46339 | 5.75378 | 43038 ft | 485 kts | 357° |
| 2026-05-08 18:52 | 25.53031 | 5.76170 | 43034 ft | 485 kts | 357° |
| 2026-05-08 18:52 | 25.59732 | 5.76963 | 43030 ft | 485 kts | 357° |
| 2026-05-08 18:53 | 25.66429 | 5.77757 | 43026 ft | 485 kts | 357° |
| 2026-05-08 18:53 | 25.73131 | 5.78550 | 43023 ft | 485 kts | 357° |
| 2026-05-08 18:54 | 25.79867 | 5.79350 | 43020 ft | 485 kts | 357° |
| 2026-05-08 18:54 | 25.86570 | 5.80148 | 43017 ft | 485 kts | 357° |
| 2026-05-08 18:55 | 25.96620 | 5.81346 | 43012 ft | 485 kts | 357° |
| 2026-05-08 18:56 | 26.03316 | 5.82145 | 43010 ft | 485 kts | 357° |
| 2026-05-08 18:56 | 26.10017 | 5.82946 | 43007 ft | 485 kts | 357° |
| 2026-05-08 18:57 | 26.16767 | 5.83753 | 43004 ft | 485 kts | 357° |
| 2026-05-08 18:57 | 26.23458 | 5.84555 | 43002 ft | 485 kts | 357° |
| 2026-05-08 18:58 | 26.30162 | 5.85359 | 43000 ft | 485 kts | 357° |
| 2026-05-08 18:58 | 26.36858 | 5.86161 | 42998 ft | 485 kts | 357° |
| 2026-05-08 18:59 | 26.43563 | 5.86963 | 42996 ft | 485 kts | 357° |
| 2026-05-08 18:59 | 26.50299 | 5.87772 | 42994 ft | 485 kts | 357° |
| 2026-05-08 19:00 | 26.57001 | 5.88578 | 42981 ft | 485 kts | 357° |
| 2026-05-08 19:00 | 26.63702 | 5.89385 | 42978 ft | 485 kts | 357° |
| 2026-05-08 19:01 | 26.70408 | 5.90194 | 42977 ft | 486 kts | 358° |
| 2026-05-08 19:01 | 26.77128 | 5.91005 | 42975 ft | 486 kts | 358° |
| 2026-05-08 19:02 | 26.83843 | 5.91817 | 42974 ft | 486 kts | 358° |
| 2026-05-08 19:02 | 26.90551 | 5.92629 | 42973 ft | 486 kts | 358° |
| 2026-05-08 19:03 | 26.97308 | 5.93448 | 42972 ft | 486 kts | 358° |
| 2026-05-08 19:03 | 27.04020 | 5.94262 | 42972 ft | 486 kts | 358° |
| 2026-05-08 19:04 | 27.10732 | 5.95078 | 42971 ft | 486 kts | 358° |
| 2026-05-08 19:04 | 27.17438 | 5.95893 | 42970 ft | 486 kts | 358° |
| 2026-05-08 19:05 | 27.24158 | 5.96712 | 42969 ft | 487 kts | 358° |
| 2026-05-08 19:05 | 27.30880 | 5.97531 | 42966 ft | 487 kts | 359° |
| 2026-05-08 19:06 | 27.37607 | 5.98352 | 42928 ft | 487 kts | 359° |
| 2026-05-08 19:06 | 27.44370 | 5.99179 | 42927 ft | 487 kts | 359° |
| 2026-05-08 19:07 | 27.51112 | 6.00004 | 42927 ft | 488 kts | 359° |
| 2026-05-08 19:07 | 27.57839 | 6.00828 | 42926 ft | 486 kts | 359° |
| 2026-05-08 19:08 | 27.64547 | 6.01651 | 42926 ft | 486 kts | 359° |
| 2026-05-08 19:08 | 27.71267 | 6.02477 | 42927 ft | 487 kts | 359° |
| 2026-05-08 19:09 | 27.78040 | 6.03310 | 42927 ft | 487 kts | 359° |
| 2026-05-08 19:09 | 27.84769 | 6.04138 | 42927 ft | 487 kts | 359° |
| 2026-05-08 19:10 | 27.91497 | 6.04968 | 42926 ft | 487 kts | 359° |
| 2026-05-08 19:10 | 27.98221 | 6.05798 | 42930 ft | 487 kts | 359° |
| 2026-05-08 19:11 | 28.04951 | 6.06630 | 42932 ft | 487 kts | 359° |
| 2026-05-08 19:11 | 28.11678 | 6.07462 | 42927 ft | 487 kts | 359° |
| 2026-05-08 19:12 | 28.18451 | 6.08301 | 42903 ft | 487 kts | 359° |
| 2026-05-08 19:12 | 28.25172 | 6.09135 | 42902 ft | 487 kts | 359° |
| 2026-05-08 19:13 | 28.31897 | 6.09967 | 42901 ft | 487 kts | 359° |
| 2026-05-08 19:13 | 28.38626 | 6.10805 | 42900 ft | 487 kts | 359° |
| 2026-05-08 19:14 | 28.45350 | 6.11644 | 42899 ft | 487 kts | 359° |
| 2026-05-08 19:14 | 28.52066 | 6.12482 | 42897 ft | 486 kts | 359° |
| 2026-05-08 19:15 | 28.58782 | 6.13322 | 42896 ft | 486 kts | 359° |
| 2026-05-08 19:15 | 28.65495 | 6.14161 | 42895 ft | 486 kts | 359° |
| 2026-05-08 19:16 | 28.72252 | 6.15009 | 42894 ft | 486 kts | 359° |
| 2026-05-08 19:16 | 28.78968 | 6.15853 | 42906 ft | 486 kts | 359° |
| 2026-05-08 19:17 | 28.85678 | 6.16697 | 42906 ft | 486 kts | 359° |
| 2026-05-08 19:17 | 28.92395 | 6.17542 | 42905 ft | 486 kts | 359° |
| 2026-05-08 19:18 | 28.99111 | 6.18384 | 42904 ft | 486 kts | 359° |
| 2026-05-08 19:18 | 29.05831 | 6.19229 | 42904 ft | 486 kts | 359° |
| 2026-05-08 19:19 | 29.12589 | 6.20082 | 42903 ft | 486 kts | 359° |
| 2026-05-08 19:19 | 29.19306 | 6.20930 | 42902 ft | 486 kts | 359° |
| 2026-05-08 19:20 | 29.26027 | 6.21781 | 42900 ft | 486 kts | 359° |
| 2026-05-08 19:20 | 29.32743 | 6.22632 | 42899 ft | 487 kts | 359° |
| 2026-05-08 19:21 | 29.39469 | 6.23486 | 42899 ft | 487 kts | 359° |
| 2026-05-08 19:21 | 29.46198 | 6.24341 | 42905 ft | 488 kts | 359° |
| 2026-05-08 19:22 | 29.52981 | 6.25204 | 42905 ft | 488 kts | 359° |
| 2026-05-08 19:22 | 29.59722 | 6.26062 | 42904 ft | 488 kts | 359° |
| 2026-05-08 19:23 | 29.66450 | 6.26920 | 42903 ft | 488 kts | 359° |
| 2026-05-08 19:23 | 29.73199 | 6.27783 | 42902 ft | 489 kts | 359° |
| 2026-05-08 19:24 | 29.79952 | 6.28647 | 42901 ft | 489 kts | 359° |
| 2026-05-08 19:24 | 29.86702 | 6.29511 | 42900 ft | 489 kts | 359° |
| 2026-05-08 19:25 | 29.93459 | 6.30378 | 42898 ft | 489 kts | 359° |
| 2026-05-08 19:25 | 30.00251 | 6.31250 | 42897 ft | 489 kts | 359° |
| 2026-05-08 19:26 | 30.07001 | 6.32119 | 42896 ft | 489 kts | 359° |
| 2026-05-08 19:26 | 30.13754 | 6.32988 | 42894 ft | 489 kts | 359° |
| 2026-05-08 19:27 | 30.20504 | 6.33859 | 42893 ft | 489 kts | 359° |
| 2026-05-08 19:27 | 30.27250 | 6.34730 | 42892 ft | 489 kts | 359° |
| 2026-05-08 19:28 | 30.34006 | 6.35604 | 42891 ft | 489 kts | 359° |
| 2026-05-08 19:28 | 30.40796 | 6.36483 | 42890 ft | 488 kts | 359° |
| 2026-05-08 19:29 | 30.47533 | 6.37357 | 42888 ft | 487 kts | 359° |
| 2026-05-08 19:29 | 30.54261 | 6.38231 | 42887 ft | 487 kts | 359° |
| 2026-05-08 19:30 | 30.60987 | 6.39103 | 42886 ft | 487 kts | 359° |
| 2026-05-08 19:30 | 30.67719 | 6.39979 | 42884 ft | 488 kts | 359° |
| 2026-05-08 19:31 | 30.74449 | 6.40858 | 42884 ft | 488 kts | 359° |
| 2026-05-08 19:31 | 30.81226 | 6.41745 | 42883 ft | 487 kts | 359° |
| 2026-05-08 19:32 | 30.87955 | 6.42625 | 42882 ft | 487 kts | 359° |
| 2026-05-08 19:32 | 30.93548 | 6.43358 | 42881 ft | 487 kts | 359° |
| 2026-05-08 19:33 | 31.01415 | 6.44391 | 42880 ft | 487 kts | 360° |
| 2026-05-08 19:33 | 31.08141 | 6.45276 | 42880 ft | 487 kts | 360° |
| 2026-05-08 19:34 | 31.13772 | 6.46018 | 42879 ft | 487 kts | 360° |
| 2026-05-08 19:34 | 31.20500 | 6.46906 | 42878 ft | 487 kts | 360° |
| 2026-05-08 19:35 | 31.27229 | 6.47791 | 42878 ft | 487 kts | 360° |
| 2026-05-08 19:35 | 31.33958 | 6.48676 | 42878 ft | 487 kts | 360° |
| 2026-05-08 19:36 | 31.40683 | 6.49565 | 42877 ft | 487 kts | 0° |
| 2026-05-08 19:36 | 31.47410 | 6.50455 | 42877 ft | 487 kts | 0° |
| 2026-05-08 19:37 | 31.54181 | 6.51353 | 42877 ft | 488 kts | 0° |
| 2026-05-08 19:37 | 31.60918 | 6.52248 | 42877 ft | 488 kts | 0° |
| 2026-05-08 19:38 | 31.67660 | 6.53144 | 42877 ft | 488 kts | 0° |
| 2026-05-08 19:38 | 31.74401 | 6.54042 | 42874 ft | 488 kts | 0° |
| 2026-05-08 19:39 | 31.81141 | 6.54941 | 42873 ft | 488 kts | 0° |
| 2026-05-08 19:39 | 31.87883 | 6.55842 | 42873 ft | 488 kts | 0° |
| 2026-05-08 19:40 | 31.94665 | 6.56750 | 42876 ft | 488 kts | 0° |
| 2026-05-08 19:40 | 32.01407 | 6.57653 | 42877 ft | 488 kts | 0° |
| 2026-05-08 19:41 | 32.08153 | 6.58558 | 42878 ft | 489 kts | 0° |
| 2026-05-08 19:41 | 32.14906 | 6.59466 | 42879 ft | 489 kts | 0° |
| 2026-05-08 19:42 | 32.21656 | 6.60374 | 42879 ft | 489 kts | 0° |
| 2026-05-08 19:42 | 32.28409 | 6.61285 | 42879 ft | 489 kts | 0° |
| 2026-05-08 19:43 | 32.35209 | 6.62203 | 42880 ft | 489 kts | 0° |
| 2026-05-08 19:43 | 32.41963 | 6.63116 | 42883 ft | 489 kts | 0° |
| 2026-05-08 19:44 | 32.48716 | 6.64030 | 42884 ft | 489 kts | 0° |
| 2026-05-08 19:44 | 32.55469 | 6.64946 | 42884 ft | 490 kts | 0° |
| 2026-05-08 19:45 | 32.62235 | 6.65865 | 42883 ft | 490 kts | 0° |
| 2026-05-08 19:45 | 32.68999 | 6.66785 | 42882 ft | 490 kts | 0° |
| 2026-05-08 19:46 | 32.75771 | 6.67708 | 42883 ft | 491 kts | 0° |
| 2026-05-08 19:46 | 32.85992 | 6.69103 | 42882 ft | 491 kts | 0° |
| 2026-05-08 19:47 | 32.92768 | 6.70029 | 42882 ft | 491 kts | 0° |
| 2026-05-08 19:47 | 32.99554 | 6.70959 | 42882 ft | 492 kts | 0° |
| 2026-05-08 19:48 | 33.06344 | 6.71890 | 42882 ft | 493 kts | 0° |
| 2026-05-08 19:48 | 33.13146 | 6.72825 | 42882 ft | 493 kts | 0° |
| 2026-05-08 19:49 | 33.19951 | 6.73760 | 42881 ft | 494 kts | 0° |
| 2026-05-08 19:49 | 33.26808 | 6.74702 | 42880 ft | 494 kts | 0° |
| 2026-05-08 19:50 | 33.33614 | 6.75643 | 42881 ft | 493 kts | 0° |
| 2026-05-08 19:50 | 33.40428 | 6.76587 | 42881 ft | 494 kts | 0° |
| 2026-05-08 19:51 | 33.47244 | 6.77532 | 42882 ft | 494 kts | 0° |
| 2026-05-08 19:51 | 33.54059 | 6.77975 | 42886 ft | 490 kts | 352° |
| 2026-05-08 19:52 | 33.60872 | 6.77582 | 42887 ft | 486 kts | 349° |
| 2026-05-08 19:52 | 33.67599 | 6.77096 | 42888 ft | 485 kts | 350° |
| 2026-05-08 19:53 | 33.74322 | 6.76660 | 42889 ft | 485 kts | 350° |
| 2026-05-08 19:53 | 33.81073 | 6.76239 | 42890 ft | 487 kts | 350° |
| 2026-05-08 19:54 | 33.87827 | 6.75825 | 42890 ft | 487 kts | 350° |
| 2026-05-08 19:54 | 33.94579 | 6.75414 | 42896 ft | 487 kts | 350° |
| 2026-05-08 19:55 | 34.01332 | 6.75001 | 42903 ft | 487 kts | 350° |
| 2026-05-08 19:55 | 34.08140 | 6.74584 | 42907 ft | 488 kts | 350° |
| 2026-05-08 19:56 | 34.14926 | 6.74168 | 42909 ft | 489 kts | 350° |
| 2026-05-08 19:56 | 34.21703 | 6.73751 | 42912 ft | 488 kts | 350° |
| 2026-05-08 19:57 | 34.28478 | 6.73334 | 42914 ft | 488 kts | 350° |
| 2026-05-08 19:57 | 34.35243 | 6.72917 | 42917 ft | 487 kts | 350° |
| 2026-05-08 19:58 | 34.42000 | 6.72500 | 42919 ft | 487 kts | 350° |
| 2026-05-08 19:58 | 34.48809 | 6.72079 | 42922 ft | 487 kts | 350° |
| 2026-05-08 19:59 | 34.55569 | 6.71662 | 42924 ft | 487 kts | 350° |
| 2026-05-08 19:59 | 34.62329 | 6.71242 | 42926 ft | 487 kts | 350° |
| 2026-05-08 20:00 | 34.69087 | 6.70821 | 42928 ft | 487 kts | 350° |
| 2026-05-08 20:00 | 34.75850 | 6.70399 | 42984 ft | 487 kts | 350° |
| 2026-05-08 20:01 | 34.82611 | 6.69979 | 42984 ft | 488 kts | 350° |
| 2026-05-08 20:01 | 34.89381 | 6.69565 | 42987 ft | 488 kts | 350° |
| 2026-05-08 20:02 | 34.96198 | 6.69146 | 42992 ft | 488 kts | 350° |
| 2026-05-08 20:02 | 35.02965 | 6.68729 | 42998 ft | 489 kts | 350° |
| 2026-05-08 20:03 | 35.09749 | 6.68310 | 43005 ft | 489 kts | 350° |
| 2026-05-08 20:03 | 35.16525 | 6.67893 | 43009 ft | 488 kts | 350° |
| 2026-05-08 20:04 | 35.23300 | 6.67476 | 43017 ft | 489 kts | 350° |
| 2026-05-08 20:04 | 35.30088 | 6.67056 | 43022 ft | 488 kts | 350° |
| 2026-05-08 20:05 | 35.36897 | 6.66634 | 43027 ft | 488 kts | 350° |
| 2026-05-08 20:05 | 35.43672 | 6.66213 | 43031 ft | 488 kts | 350° |
| 2026-05-08 20:06 | 35.50447 | 6.65792 | 43037 ft | 488 kts | 351° |
| 2026-05-08 20:06 | 35.57234 | 6.65369 | 43058 ft | 489 kts | 351° |
| 2026-05-08 20:07 | 35.64022 | 6.64945 | 43062 ft | 489 kts | 351° |
| 2026-05-08 20:07 | 35.70811 | 6.64520 | 43064 ft | 489 kts | 351° |
| 2026-05-08 20:08 | 35.77649 | 6.64092 | 43066 ft | 489 kts | 351° |
| 2026-05-08 20:08 | 35.84438 | 6.63666 | 43069 ft | 489 kts | 351° |
| 2026-05-08 20:09 | 35.91227 | 6.63239 | 43072 ft | 489 kts | 351° |
| 2026-05-08 20:09 | 35.98019 | 6.62812 | 43075 ft | 490 kts | 351° |
| 2026-05-08 20:10 | 36.04808 | 6.62385 | 43077 ft | 489 kts | 351° |
| 2026-05-08 20:10 | 36.11591 | 6.61956 | 43079 ft | 489 kts | 351° |
| 2026-05-08 20:11 | 36.18371 | 6.61527 | 43082 ft | 489 kts | 351° |
| 2026-05-08 20:11 | 36.25202 | 6.61093 | 43082 ft | 489 kts | 351° |
| 2026-05-08 20:12 | 36.32037 | 6.61150 | 43085 ft | 496 kts | 358° |
| 2026-05-08 20:12 | 36.38901 | 6.62135 | 43082 ft | 499 kts | 1° |
| 2026-05-08 20:13 | 36.45789 | 6.63276 | 43078 ft | 499 kts | 1° |
| 2026-05-08 20:13 | 36.52653 | 6.64358 | 43071 ft | 498 kts | 1° |
| 2026-05-08 20:14 | 36.59525 | 6.65422 | 43071 ft | 498 kts | 1° |
| 2026-05-08 20:14 | 36.66394 | 6.66474 | 43069 ft | 498 kts | 0° |
| 2026-05-08 20:15 | 36.73304 | 6.67526 | 43061 ft | 498 kts | 0° |
| 2026-05-08 20:15 | 36.80170 | 6.68576 | 43060 ft | 498 kts | 0° |
| 2026-05-08 20:16 | 36.87047 | 6.69632 | 43073 ft | 499 kts | 0° |
| 2026-05-08 20:16 | 36.93925 | 6.70692 | 43077 ft | 498 kts | 0° |
| 2026-05-08 20:17 | 37.00800 | 6.71752 | 43071 ft | 498 kts | 0° |
| 2026-05-08 20:17 | 37.07672 | 6.72813 | 43070 ft | 498 kts | 0° |
| 2026-05-08 20:18 | 37.14588 | 6.73883 | 43069 ft | 499 kts | 0° |
| 2026-05-08 20:18 | 37.21462 | 6.74948 | 43068 ft | 498 kts | 0° |
| 2026-05-08 20:19 | 37.28327 | 6.76014 | 43040 ft | 498 kts | 0° |
| 2026-05-08 20:19 | 37.35189 | 6.77081 | 43038 ft | 498 kts | 0° |
| 2026-05-08 20:20 | 37.42051 | 6.78151 | 43039 ft | 498 kts | 0° |
| 2026-05-08 20:20 | 37.48961 | 6.79230 | 43039 ft | 498 kts | 0° |
| 2026-05-08 20:21 | 37.55835 | 6.80305 | 43040 ft | 498 kts | 0° |
| 2026-05-08 20:21 | 37.62700 | 6.81381 | 43040 ft | 498 kts | 0° |
| 2026-05-08 20:22 | 37.69576 | 6.82460 | 43041 ft | 498 kts | 0° |
| 2026-05-08 20:22 | 37.75279 | 6.83357 | 43041 ft | 498 kts | 0° |
| 2026-05-08 20:23 | 37.83311 | 6.84622 | 43041 ft | 498 kts | 0° |
| 2026-05-08 20:23 | 37.90183 | 6.85707 | 43042 ft | 498 kts | 0° |
| 2026-05-08 20:24 | 37.97104 | 6.86802 | 43042 ft | 498 kts | 0° |
| 2026-05-08 20:24 | 38.03970 | 6.87891 | 43042 ft | 499 kts | 0° |
| 2026-05-08 20:25 | 38.10847 | 6.88982 | 43043 ft | 499 kts | 0° |
| 2026-05-08 20:25 | 38.16604 | 6.89898 | 43043 ft | 499 kts | 0° |
| 2026-05-08 20:26 | 38.23495 | 6.90996 | 43043 ft | 499 kts | 0° |
| 2026-05-08 20:26 | 38.30377 | 6.92095 | 43044 ft | 499 kts | 0° |
| 2026-05-08 20:27 | 38.37258 | 6.93195 | 43044 ft | 499 kts | 0° |
| 2026-05-08 20:27 | 38.44135 | 6.94297 | 43045 ft | 499 kts | 0° |
| 2026-05-08 20:28 | 38.51024 | 6.95404 | 43045 ft | 499 kts | 0° |
| 2026-05-08 20:28 | 38.57949 | 6.96518 | 43045 ft | 499 kts | 0° |
| 2026-05-08 20:29 | 38.64847 | 6.97629 | 43046 ft | 500 kts | 0° |
| 2026-05-08 20:29 | 38.71748 | 6.98739 | 43046 ft | 501 kts | 0° |
| 2026-05-08 20:30 | 38.78652 | 6.99855 | 43047 ft | 501 kts | 0° |
| 2026-05-08 20:30 | 38.85554 | 7.00977 | 43047 ft | 501 kts | 0° |
| 2026-05-08 20:31 | 38.92460 | 7.02101 | 43047 ft | 501 kts | 0° |
| 2026-05-08 20:31 | 38.99421 | 7.03235 | 43047 ft | 502 kts | 0° |
| 2026-05-08 20:32 | 39.06349 | 7.03984 | 43048 ft | 499 kts | 356° |
| 2026-05-08 20:32 | 39.13263 | 7.04503 | 43049 ft | 497 kts | 356° |
| 2026-05-08 20:33 | 39.20152 | 7.05065 | 43059 ft | 497 kts | 356° |
| 2026-05-08 20:33 | 39.27053 | 7.05647 | 43061 ft | 499 kts | 357° |
| 2026-05-08 20:34 | 39.33972 | 7.06238 | 43070 ft | 499 kts | 357° |
| 2026-05-08 20:35 | 39.44358 | 7.07123 | 43061 ft | 499 kts | 357° |
| 2026-05-08 20:35 | 39.51322 | 7.07721 | 43061 ft | 499 kts | 357° |
| 2026-05-08 20:36 | 39.58245 | 7.08318 | 43062 ft | 499 kts | 357° |
| 2026-05-08 20:36 | 39.65172 | 7.08917 | 43063 ft | 499 kts | 357° |
| 2026-05-08 20:37 | 39.72091 | 7.09516 | 43064 ft | 499 kts | 357° |
| 2026-05-08 20:37 | 39.79020 | 7.10117 | 43065 ft | 499 kts | 357° |
| 2026-05-08 20:38 | 39.85946 | 7.10720 | 43065 ft | 500 kts | 357° |
| 2026-05-08 20:38 | 39.92929 | 7.11328 | 43069 ft | 501 kts | 357° |
| 2026-05-08 20:39 | 39.99872 | 7.11935 | 43071 ft | 500 kts | 357° |
| 2026-05-08 20:39 | 40.06811 | 7.12541 | 43071 ft | 500 kts | 357° |
| 2026-05-08 20:40 | 40.13743 | 7.13149 | 43072 ft | 500 kts | 358° |
| 2026-05-08 20:40 | 40.20682 | 7.13759 | 43073 ft | 500 kts | 358° |
| 2026-05-08 20:41 | 40.27665 | 7.14374 | 43074 ft | 500 kts | 358° |
| 2026-05-08 20:41 | 40.34600 | 7.14986 | 43074 ft | 500 kts | 358° |
| 2026-05-08 20:42 | 40.41538 | 7.15599 | 43075 ft | 500 kts | 358° |
| 2026-05-08 20:42 | 40.48475 | 7.16214 | 43075 ft | 500 kts | 358° |
| 2026-05-08 20:43 | 40.55404 | 7.16829 | 43076 ft | 500 kts | 358° |
| 2026-05-08 20:43 | 40.62334 | 7.17442 | 43076 ft | 500 kts | 358° |
| 2026-05-08 20:44 | 40.69262 | 7.18060 | 43075 ft | 500 kts | 358° |
| 2026-05-08 20:44 | 40.76195 | 7.18681 | 43075 ft | 500 kts | 358° |
| 2026-05-08 20:45 | 40.83165 | 7.19306 | 43075 ft | 500 kts | 358° |
| 2026-05-08 20:45 | 40.90098 | 7.19928 | 43075 ft | 500 kts | 358° |
| 2026-05-08 20:46 | 40.97034 | 7.20319 | 43074 ft | 499 kts | 356° |
| 2026-05-08 20:46 | 41.03968 | 7.20648 | 43074 ft | 498 kts | 356° |
| 2026-05-08 20:47 | 41.10883 | 7.21001 | 43073 ft | 498 kts | 356° |
| 2026-05-08 20:47 | 41.17800 | 7.21362 | 43073 ft | 498 kts | 356° |
| 2026-05-08 20:48 | 41.24762 | 7.21727 | 43072 ft | 498 kts | 356° |
| 2026-05-08 20:48 | 41.31680 | 7.22087 | 43071 ft | 498 kts | 356° |
| 2026-05-08 20:49 | 41.38602 | 7.22451 | 43071 ft | 498 kts | 357° |
| 2026-05-08 20:49 | 41.45513 | 7.22817 | 43070 ft | 498 kts | 357° |
| 2026-05-08 20:50 | 41.52428 | 7.23184 | 43070 ft | 498 kts | 357° |
| 2026-05-08 20:50 | 41.59335 | 7.23551 | 43069 ft | 498 kts | 357° |
| 2026-05-08 20:51 | 41.66249 | 7.23965 | 43069 ft | 498 kts | 358° |
| 2026-05-08 20:51 | 41.73204 | 7.24425 | 43069 ft | 498 kts | 358° |
| 2026-05-08 20:52 | 41.80115 | 7.24880 | 43068 ft | 498 kts | 358° |
| 2026-05-08 20:52 | 41.87023 | 7.25334 | 43068 ft | 498 kts | 358° |
| 2026-05-08 20:53 | 41.93937 | 7.25789 | 43068 ft | 498 kts | 358° |
| 2026-05-08 20:53 | 42.00843 | 7.26239 | 43070 ft | 498 kts | 358° |
| 2026-05-08 20:54 | 42.07741 | 7.26691 | 43069 ft | 497 kts | 358° |
| 2026-05-08 20:54 | 42.14690 | 7.27149 | 43070 ft | 497 kts | 358° |
| 2026-05-08 20:55 | 42.21586 | 7.27604 | 43071 ft | 497 kts | 358° |
| 2026-05-08 20:55 | 42.28479 | 7.28061 | 43071 ft | 497 kts | 358° |
| 2026-05-08 20:56 | 42.35377 | 7.28518 | 43072 ft | 497 kts | 358° |
| 2026-05-08 20:56 | 42.42280 | 7.28977 | 43073 ft | 497 kts | 358° |
| 2026-05-08 20:57 | 42.49173 | 7.29437 | 43074 ft | 497 kts | 358° |
| 2026-05-08 20:57 | 42.56114 | 7.29900 | 43080 ft | 497 kts | 358° |
| 2026-05-08 20:58 | 42.63009 | 7.30362 | 43082 ft | 497 kts | 358° |
| 2026-05-08 20:58 | 42.69902 | 7.30824 | 43082 ft | 497 kts | 358° |
| 2026-05-08 20:59 | 42.76791 | 7.31288 | 43082 ft | 497 kts | 358° |
| 2026-05-08 20:59 | 42.83692 | 7.31753 | 43082 ft | 497 kts | 358° |
| 2026-05-08 21:00 | 42.90581 | 7.32218 | 43082 ft | 496 kts | 358° |
| 2026-05-08 21:00 | 42.97456 | 7.32683 | 43082 ft | 496 kts | 358° |
| 2026-05-08 21:01 | 43.04384 | 7.33153 | 43082 ft | 496 kts | 358° |
| 2026-05-08 21:01 | 43.11263 | 7.33621 | 43082 ft | 496 kts | 358° |
| 2026-05-08 21:02 | 43.18148 | 7.34090 | 43083 ft | 496 kts | 358° |
| 2026-05-08 21:02 | 43.25028 | 7.34560 | 43083 ft | 496 kts | 358° |
| 2026-05-08 21:03 | 43.31899 | 7.35029 | 43082 ft | 495 kts | 358° |
| 2026-05-08 21:03 | 43.38774 | 7.35499 | 43082 ft | 495 kts | 358° |
| 2026-05-08 21:04 | 43.45693 | 7.35976 | 43082 ft | 495 kts | 358° |
| 2026-05-08 21:04 | 43.52561 | 7.36451 | 43082 ft | 495 kts | 358° |
| 2026-05-08 21:05 | 43.59404 | 7.36616 | 43080 ft | 488 kts | 347° |
| 2026-05-08 21:05 | 43.62648 | 7.35379 | 43082 ft | 482 kts | 333° |
| 2026-05-08 21:05 | 43.65687 | 7.33483 | 43082 ft | 479 kts | 329° |
| 2026-05-08 21:06 | 43.71379 | 7.28937 | 43080 ft | 470 kts | 322° |
| 2026-05-08 21:06 | 43.76774 | 7.23873 | 43083 ft | 469 kts | 321° |
| 2026-05-08 21:07 | 43.82177 | 7.18826 | 43084 ft | 469 kts | 321° |
| 2026-05-08 21:07 | 43.87598 | 7.13811 | 43084 ft | 470 kts | 322° |
| 2026-05-08 21:08 | 43.93089 | 7.08818 | 43085 ft | 470 kts | 322° |
| 2026-05-08 21:08 | 43.98514 | 7.03800 | 43087 ft | 470 kts | 321° |
| 2026-05-08 21:09 | 44.03939 | 6.98755 | 43088 ft | 469 kts | 322° |
| 2026-05-08 21:09 | 44.09354 | 6.93710 | 43089 ft | 469 kts | 322° |
| 2026-05-08 21:10 | 44.15170 | 6.89629 | 43099 ft | 476 kts | 339° |
| 2026-05-08 21:10 | 44.21718 | 6.87801 | 43095 ft | 485 kts | 348° |
| 2026-05-08 21:11 | 44.28485 | 6.86803 | 43095 ft | 488 kts | 350° |
| 2026-05-08 21:11 | 44.35232 | 6.85856 | 43097 ft | 488 kts | 349° |
| 2026-05-08 21:12 | 44.41964 | 6.84850 | 43098 ft | 487 kts | 349° |
| 2026-05-08 21:12 | 44.48700 | 6.83830 | 43098 ft | 487 kts | 349° |
| 2026-05-08 21:13 | 44.55434 | 6.82815 | 43101 ft | 487 kts | 349° |
| 2026-05-08 21:13 | 44.62160 | 6.81786 | 43106 ft | 487 kts | 349° |
| 2026-05-08 21:14 | 44.68939 | 6.80744 | 43106 ft | 487 kts | 349° |
| 2026-05-08 21:14 | 44.75668 | 6.79708 | 43105 ft | 487 kts | 349° |
| 2026-05-08 21:15 | 44.82407 | 6.78783 | 43105 ft | 488 kts | 352° |
| 2026-05-08 21:15 | 44.89189 | 6.78379 | 43105 ft | 489 kts | 354° |
| 2026-05-08 21:16 | 44.95975 | 6.77978 | 43104 ft | 489 kts | 353° |
| 2026-05-08 21:16 | 45.02768 | 6.77543 | 43104 ft | 489 kts | 353° |
| 2026-05-08 21:17 | 45.09611 | 6.77095 | 43101 ft | 489 kts | 353° |
| 2026-05-08 21:17 | 45.16395 | 6.76646 | 43087 ft | 489 kts | 353° |
| 2026-05-08 21:18 | 45.22034 | 6.76270 | 43089 ft | 488 kts | 353° |
| 2026-05-08 21:18 | 45.29951 | 6.75743 | 43092 ft | 488 kts | 353° |
| 2026-05-08 21:19 | 45.36729 | 6.75291 | 43092 ft | 488 kts | 354° |
| 2026-05-08 21:19 | 45.43503 | 6.74839 | 43097 ft | 488 kts | 354° |
| 2026-05-08 21:20 | 45.49186 | 6.74454 | 43097 ft | 488 kts | 354° |
| 2026-05-08 21:20 | 45.55952 | 6.73994 | 43096 ft | 488 kts | 354° |
| 2026-05-08 21:21 | 45.62731 | 6.73529 | 43096 ft | 488 kts | 354° |
| 2026-05-08 21:21 | 45.69494 | 6.73063 | 43095 ft | 487 kts | 354° |
| 2026-05-08 21:22 | 45.76264 | 6.72595 | 43096 ft | 487 kts | 354° |
| 2026-05-08 21:22 | 45.83025 | 6.72131 | 43097 ft | 487 kts | 354° |
| 2026-05-08 21:23 | 45.89837 | 6.71671 | 43099 ft | 488 kts | 354° |
| 2026-05-08 21:23 | 45.96611 | 6.71209 | 43105 ft | 488 kts | 354° |
| 2026-05-08 21:24 | 46.03388 | 6.70745 | 43106 ft | 488 kts | 354° |
| 2026-05-08 21:24 | 46.10161 | 6.70266 | 43106 ft | 487 kts | 352° |
| 2026-05-08 21:25 | 46.16745 | 6.68266 | 42920 ft | 483 kts | 340° |
| 2026-05-08 21:25 | 46.19921 | 6.66801 | 42416 ft | 478 kts | 338° |
| 2026-05-08 21:25 | 46.23035 | 6.65228 | 41918 ft | 472 kts | 337° |
| 2026-05-08 21:25 | 46.26152 | 6.63637 | 41411 ft | 467 kts | 337° |
| 2026-05-08 21:26 | 46.29194 | 6.62109 | 40905 ft | 462 kts | 337° |
| 2026-05-08 21:26 | 46.32215 | 6.60608 | 40332 ft | 458 kts | 337° |
| 2026-05-08 21:26 | 46.35217 | 6.59125 | 39759 ft | 455 kts | 337° |
| 2026-05-08 21:26 | 46.38191 | 6.57659 | 39185 ft | 451 kts | 337° |
| 2026-05-08 21:27 | 46.41145 | 6.56206 | 38611 ft | 447 kts | 337° |
| 2026-05-08 21:27 | 46.44072 | 6.54765 | 38037 ft | 443 kts | 337° |
| 2026-05-08 21:27 | 46.46983 | 6.53346 | 37461 ft | 440 kts | 337° |
| 2026-05-08 21:27 | 46.49863 | 6.51946 | 36887 ft | 436 kts | 336° |
| 2026-05-08 21:28 | 46.52720 | 6.50549 | 36312 ft | 432 kts | 336° |
| 2026-05-08 21:28 | 46.55546 | 6.49164 | 35738 ft | 428 kts | 336° |
| 2026-05-08 21:28 | 46.58350 | 6.47785 | 35163 ft | 424 kts | 336° |
| 2026-05-08 21:28 | 46.61120 | 6.46421 | 34589 ft | 419 kts | 336° |
| 2026-05-08 21:29 | 46.63866 | 6.45066 | 34014 ft | 415 kts | 336° |
| 2026-05-08 21:29 | 46.66618 | 6.43707 | 33432 ft | 411 kts | 336° |
| 2026-05-08 21:29 | 46.69311 | 6.42375 | 32857 ft | 407 kts | 336° |
| 2026-05-08 21:29 | 46.71974 | 6.41056 | 32282 ft | 403 kts | 336° |
| 2026-05-08 21:30 | 46.74611 | 6.39749 | 31708 ft | 399 kts | 336° |
| 2026-05-08 21:30 | 46.77231 | 6.38461 | 31132 ft | 396 kts | 336° |
| 2026-05-08 21:30 | 46.79765 | 6.37004 | 30722 ft | 392 kts | 331° |
| 2026-05-08 21:30 | 46.82197 | 6.35241 | 30472 ft | 390 kts | 328° |
| 2026-05-08 21:31 | 46.84533 | 6.33245 | 30223 ft | 389 kts | 324° |
| 2026-05-08 21:31 | 46.86792 | 6.31097 | 30119 ft | 388 kts | 323° |
| 2026-05-08 21:31 | 46.89035 | 6.28911 | 30106 ft | 387 kts | 323° |
| 2026-05-08 21:32 | 46.93503 | 6.24568 | 30101 ft | 386 kts | 323° |
| 2026-05-08 21:32 | 46.98000 | 6.20200 | 30100 ft | 386 kts | 323° |
| 2026-05-08 21:33 | 47.02315 | 6.15601 | 30093 ft | 382 kts | 318° |
| 2026-05-08 21:33 | 47.06448 | 6.10732 | 30086 ft | 381 kts | 318° |
| 2026-05-08 21:34 | 47.10575 | 6.05871 | 30079 ft | 380 kts | 318° |
| 2026-05-08 21:34 | 47.14767 | 6.01153 | 30074 ft | 381 kts | 321° |
| 2026-05-08 21:35 | 47.19203 | 5.96871 | 30068 ft | 383 kts | 324° |
| 2026-05-08 21:35 | 47.23770 | 5.92800 | 30067 ft | 383 kts | 327° |
| 2026-05-08 21:36 | 47.28810 | 5.90100 | 30068 ft | 393 kts | 343° |
| 2026-05-08 21:36 | 47.34342 | 5.90027 | 30074 ft | 408 kts | 1° |
| 2026-05-08 21:37 | 47.39943 | 5.91513 | 30070 ft | 410 kts | 4° |
| 2026-05-08 21:37 | 47.45514 | 5.93311 | 30074 ft | 411 kts | 6° |
| 2026-05-08 21:38 | 47.51077 | 5.95385 | 30068 ft | 413 kts | 7° |
| 2026-05-08 21:38 | 47.56658 | 5.97505 | 30072 ft | 412 kts | 7° |
| 2026-05-08 21:39 | 47.62196 | 5.99618 | 30076 ft | 412 kts | 6° |
| 2026-05-08 21:39 | 47.67737 | 6.01735 | 30075 ft | 411 kts | 6° |
| 2026-05-08 21:40 | 47.73273 | 6.03749 | 30079 ft | 406 kts | 2° |
| 2026-05-08 21:40 | 47.78831 | 6.04453 | 30081 ft | 398 kts | 354° |
| 2026-05-08 21:41 | 47.87093 | 6.04592 | 30083 ft | 398 kts | 353° |
| 2026-05-08 21:41 | 47.89923 | 6.04658 | 30082 ft | 412 kts | 353° |
| 2026-05-08 21:41 | 47.92849 | 6.04737 | 30084 ft | 427 kts | 354° |
| 2026-05-08 21:42 | 47.98805 | 6.04912 | 30080 ft | 426 kts | 354° |
| 2026-05-08 21:42 | 48.04704 | 6.05091 | 30080 ft | 425 kts | 354° |
| 2026-05-08 21:43 | 48.10617 | 6.05275 | 30081 ft | 426 kts | 354° |
| 2026-05-08 21:43 | 48.16529 | 6.05460 | 30079 ft | 426 kts | 354° |
| 2026-05-08 21:44 | 48.22443 | 6.05646 | 30079 ft | 426 kts | 354° |
| 2026-05-08 21:44 | 48.28368 | 6.05849 | 30080 ft | 428 kts | 356° |
| 2026-05-08 21:45 | 48.31366 | 6.06818 | 30082 ft | 446 kts | 12° |
| 2026-05-08 21:45 | 48.34217 | 6.08701 | 30082 ft | 451 kts | 18° |
| 2026-05-08 21:45 | 48.39711 | 6.13410 | 30084 ft | 458 kts | 25° |
| 2026-05-08 21:46 | 48.45039 | 6.18685 | 30087 ft | 460 kts | 27° |
| 2026-05-08 21:46 | 48.50379 | 6.23945 | 30083 ft | 458 kts | 26° |
| 2026-05-08 21:47 | 48.53037 | 6.26552 | 29808 ft | 452 kts | 27° |
| 2026-05-08 21:47 | 48.55644 | 6.29111 | 29350 ft | 445 kts | 27° |
| 2026-05-08 21:47 | 48.58223 | 6.31643 | 28711 ft | 440 kts | 27° |
| 2026-05-08 21:47 | 48.60776 | 6.34150 | 28050 ft | 437 kts | 28° |
| 2026-05-08 21:48 | 48.63320 | 6.36603 | 27389 ft | 431 kts | 25° |
| 2026-05-08 21:48 | 48.66103 | 6.38202 | 26743 ft | 418 kts | 10° |
| 2026-05-08 21:48 | 48.68943 | 6.39111 | 25983 ft | 418 kts | 6° |
| 2026-05-08 21:48 | 48.71813 | 6.39737 | 25324 ft | 417 kts | 3° |
| 2026-05-08 21:49 | 48.74693 | 6.40141 | 24658 ft | 417 kts | 1° |
| 2026-05-08 21:49 | 48.77586 | 6.40420 | 23987 ft | 418 kts | 0° |
| 2026-05-08 21:49 | 48.80477 | 6.40671 | 23320 ft | 415 kts | 0° |
| 2026-05-08 21:49 | 48.83338 | 6.40937 | 22671 ft | 411 kts | 1° |
| 2026-05-08 21:50 | 48.86178 | 6.41213 | 22030 ft | 407 kts | 1° |
| 2026-05-08 21:50 | 48.88986 | 6.41492 | 21399 ft | 403 kts | 1° |
| 2026-05-08 21:50 | 48.91764 | 6.41766 | 20775 ft | 399 kts | 1° |
| 2026-05-08 21:50 | 48.94517 | 6.42041 | 20158 ft | 395 kts | 1° |
| 2026-05-08 21:51 | 48.97239 | 6.42316 | 19543 ft | 391 kts | 1° |
| 2026-05-08 21:51 | 48.99975 | 6.42593 | 18928 ft | 387 kts | 2° |
| 2026-05-08 21:51 | 49.02651 | 6.42868 | 18319 ft | 384 kts | 2° |
| 2026-05-08 21:51 | 49.05298 | 6.43139 | 17715 ft | 381 kts | 2° |
| 2026-05-08 21:52 | 49.07931 | 6.43410 | 17114 ft | 378 kts | 2° |
| 2026-05-08 21:52 | 49.10534 | 6.43677 | 16519 ft | 374 kts | 2° |
| 2026-05-08 21:52 | 49.13116 | 6.43943 | 15928 ft | 371 kts | 2° |
| 2026-05-08 21:52 | 49.15680 | 6.44207 | 15427 ft | 366 kts | 2° |
| 2026-05-08 21:53 | 49.18154 | 6.44462 | 15342 ft | 348 kts | 2° |
| 2026-05-08 21:53 | 49.20512 | 6.44631 | 15237 ft | 331 kts | 355° |
| 2026-05-08 21:53 | 49.22713 | 6.44026 | 15023 ft | 317 kts | 342° |
| 2026-05-08 21:53 | 49.24794 | 6.43005 | 14667 ft | 312 kts | 338° |
| 2026-05-08 21:54 | 49.26794 | 6.41778 | 14254 ft | 309 kts | 334° |
| 2026-05-08 21:54 | 49.28741 | 6.40418 | 13825 ft | 307 kts | 332° |
| 2026-05-08 21:54 | 49.30669 | 6.39031 | 13405 ft | 305 kts | 333° |
| 2026-05-08 21:54 | 49.32594 | 6.37682 | 12875 ft | 298 kts | 333° |
| 2026-05-08 21:55 | 49.34484 | 6.36375 | 12171 ft | 299 kts | 333° |
| 2026-05-08 21:55 | 49.36391 | 6.35062 | 11568 ft | 303 kts | 334° |
| 2026-05-08 21:55 | 49.38323 | 6.33807 | 11172 ft | 301 kts | 338° |
| 2026-05-08 21:56 | 49.42357 | 6.32219 | 10436 ft | 296 kts | 347° |
| 2026-05-08 21:56 | 49.44345 | 6.31654 | 10244 ft | 287 kts | 348° |
| 2026-05-08 21:56 | 49.46286 | 6.31071 | 9927 ft | 284 kts | 348° |
| 2026-05-08 21:56 | 49.48179 | 6.30447 | 9792 ft | 272 kts | 344° |
| 2026-05-08 21:57 | 49.49802 | 6.29101 | 9517 ft | 264 kts | 317° |
| 2026-05-08 21:57 | 49.50790 | 6.26816 | 9259 ft | 256 kts | 290° |
| 2026-05-08 21:57 | 49.51017 | 6.24181 | 9127 ft | 243 kts | 268° |
| 2026-05-08 21:57 | 49.50730 | 6.21651 | 8992 ft | 233 kts | 255° |
| 2026-05-08 21:58 | 49.50233 | 6.19320 | 8746 ft | 227 kts | 250° |
| 2026-05-08 21:58 | 49.49664 | 6.17058 | 8340 ft | 227 kts | 248° |
| 2026-05-08 21:58 | 49.49072 | 6.14810 | 7914 ft | 227 kts | 247° |
| 2026-05-08 21:58 | 49.48499 | 6.12561 | 7480 ft | 225 kts | 248° |
| 2026-05-08 21:59 | 49.47962 | 6.10306 | 7027 ft | 224 kts | 249° |
| 2026-05-08 21:59 | 49.47445 | 6.08050 | 6580 ft | 223 kts | 249° |
| 2026-05-08 21:59 | 49.46973 | 6.05791 | 6148 ft | 222 kts | 257° |
| 2026-05-08 21:59 | 49.47110 | 6.03453 | 5654 ft | 224 kts | 290° |
| 2026-05-08 22:00 | 49.48018 | 6.01547 | 5228 ft | 221 kts | 315° |
| 2026-05-08 22:00 | 49.49251 | 6.00185 | 4817 ft | 219 kts | 328° |
| 2026-05-08 22:00 | 49.50566 | 5.99050 | 4467 ft | 213 kts | 332° |
| 2026-05-08 22:00 | 49.51853 | 5.98060 | 4265 ft | 202 kts | 340° |
| 2026-05-08 22:01 | 49.53193 | 5.97992 | 4095 ft | 191 kts | 19° |
| 2026-05-08 22:01 | 49.54288 | 5.99183 | 3987 ft | 190 kts | 44° |
| 2026-05-08 22:01 | 49.55093 | 6.00768 | 3806 ft | 187 kts | 56° |
| 2026-05-08 22:01 | 49.55751 | 6.02468 | 3569 ft | 183 kts | 61° |
| 2026-05-08 22:02 | 49.56343 | 6.04150 | 3330 ft | 174 kts | 62° |
| 2026-05-08 22:02 | 49.56917 | 6.05743 | 3112 ft | 165 kts | 62° |
| 2026-05-08 22:02 | 49.57451 | 6.07193 | 2917 ft | 147 kts | 61° |
| 2026-05-08 22:02 | 49.57930 | 6.08484 | 2720 ft | 133 kts | 61° |
| 2026-05-08 22:03 | 49.58382 | 6.09699 | 2549 ft | 130 kts | 61° |
| 2026-05-08 22:03 | 49.58834 | 6.10914 | 2372 ft | 131 kts | 60° |
| 2026-05-08 22:03 | 49.59294 | 6.12151 | 2201 ft | 134 kts | 60° |
| 2026-05-08 22:03 | 49.59759 | 6.13400 | 2020 ft | 135 kts | 60° |
| 2026-05-08 22:04 | 49.60236 | 6.14681 | 1835 ft | 136 kts | 60° |
| 2026-05-08 22:04 | 49.60697 | 6.15919 | 1648 ft | 134 kts | 60° |
| 2026-05-08 22:04 | 49.61152 | 6.17147 | 1488 ft | 131 kts | 60° |
| 2026-05-08 22:04 | 49.61612 | 6.18371 | 1324 ft | 130 kts | 60° |
| 2026-05-08 22:05 | 49.62026 | 6.19491 | 1248 ft | 113 kts | 60° |
| 2026-05-08 22:05 | 49.62363 | 6.20401 | 1248 ft | 81 kts | 60° |
| 2026-05-08 22:05 | 49.62587 | 6.21005 | 1248 ft | 55 kts | 60° |
| 2026-05-08 22:05 | 49.62761 | 6.21471 | 1248 ft | 45 kts | 60° |
| 2026-05-08 22:06 | 49.62902 | 6.21848 | 1248 ft | 35 kts | 60° |
| 2026-05-08 22:06 | 49.62982 | 6.22066 | 1248 ft | 13 kts | 60° |
| 2026-05-08 22:06 | 49.63046 | 6.22127 | 1248 ft | 11 kts | 352° |
| 2026-05-08 22:06 | 49.63113 | 6.22079 | 1248 ft | 10 kts | 330° |
| 2026-05-08 22:07 | 49.63171 | 6.22040 | 1248 ft | 9 kts | 358° |
| 2026-05-08 22:07 | 49.63214 | 6.22093 | 1248 ft | 8 kts | 59° |
| 2026-05-08 22:07 | 49.63245 | 6.22187 | 1248 ft | 13 kts | 64° |
| 2026-05-08 22:07 | 49.63283 | 6.22309 | 1248 ft | 12 kts | 65° |
| 2026-05-08 22:08 | 49.63319 | 6.22425 | 1248 ft | 12 kts | 65° |
| 2026-05-08 22:08 | 49.63355 | 6.22531 | 1248 ft | 11 kts | 60° |
| 2026-05-08 22:08 | 49.63391 | 6.22627 | 1248 ft | 10 kts | 60° |
| 2026-05-08 22:08 | 49.63425 | 6.22718 | 1248 ft | 10 kts | 60° |
| 2026-05-08 22:09 | 49.63457 | 6.22803 | 1248 ft | 8 kts | 60° |
| 2026-05-08 22:09 | 49.63490 | 6.22856 | 1248 ft | 7 kts | 18° |
| 2026-05-08 22:09 | 49.63533 | 6.22840 | 1248 ft | 6 kts | 331° |
| 2026-05-08 22:09 | 49.63567 | 6.22809 | 1248 ft | 4 kts | 330° |
| 2026-05-08 22:10 | 49.63592 | 6.22814 | 1248 ft | 4 kts | 45° |
| 2026-05-08 22:10 | 49.63607 | 6.22848 | 1248 ft | 4 kts | 58° |
| 2026-05-08 22:10 | 49.63620 | 6.22880 | 1248 ft | 3 kts | 59° |
| 2026-05-08 22:10 | 49.63628 | 6.22903 | 1248 ft | 1 kts | 59° |